Time;durP1;ratioP1;P1;durP2;ratioP2;P2;SDS_P1;SDS_P2;PMS_P1;PMS_P2;Temp;Humidity;BMP_temperature;BMP_pressure;BME280_temperature;BME280_humidity;BME280_pressure;Samples;Min_cycle;Max_cycle;Signal;HPM_P1;HPM_P2
2021/01/19 00:00:22;;;;;;;5.87;2.53;;;6.00;99.90;;;;;;5001628;28;20187;-77
2021/01/19 00:02:48;;;;;;;7.40;2.57;;;6.00;99.90;;;;;;5013019;28;20263;-77
2021/01/19 00:05:14;;;;;;;4.37;2.43;;;6.10;99.90;;;;;;4993349;28;20184;-77
2021/01/19 00:07:39;;;;;;;8.10;2.73;;;6.10;99.90;;;;;;5009322;28;20638;-77
2021/01/19 00:10:06;;;;;;;5.20;3.27;;;6.30;99.90;;;;;;5028204;28;20451;-77
2021/01/19 00:12:32;;;;;;;7.20;3.23;;;6.30;99.90;;;;;;5012607;28;20164;-77
2021/01/19 00:14:58;;;;;;;7.33;3.70;;;6.30;99.90;;;;;;5028063;28;20431;-77
2021/01/19 00:17:23;;;;;;;3.97;2.80;;;6.20;99.90;;;;;;5011846;28;20940;-77
2021/01/19 00:19:49;;;;;;;6.53;3.90;;;6.20;99.90;;;;;;5028201;28;20206;-77
2021/01/19 00:22:14;;;;;;;6.50;4.17;;;6.10;99.90;;;;;;5002880;28;20230;-77
2021/01/19 00:24:40;;;;;;;7.20;3.63;;;6.00;99.90;;;;;;5007008;28;20200;-77
2021/01/19 00:27:06;;;;;;;8.53;3.67;;;6.00;99.90;;;;;;5012424;28;20207;-77
2021/01/19 00:29:31;;;;;;;6.37;3.30;;;5.90;99.90;;;;;;5012862;28;20676;-77
2021/01/19 00:31:57;;;;;;;4.73;3.93;;;5.80;99.90;;;;;;5012286;28;20164;-77
2021/01/19 00:34:22;;;;;;;4.30;2.93;;;5.70;99.90;;;;;;5010988;28;20180;-77
2021/01/19 00:36:48;;;;;;;6.60;3.67;;;5.70;99.90;;;;;;5026570;28;20186;-77
2021/01/19 00:39:14;;;;;;;12.03;3.67;;;5.70;99.90;;;;;;4999262;28;20617;-77
2021/01/19 00:41:40;;;;;;;5.97;3.70;;;5.70;99.90;;;;;;4992845;28;20411;-77
2021/01/19 00:44:06;;;;;;;5.43;2.87;;;5.70;99.90;;;;;;4992830;28;20220;-77
2021/01/19 00:46:32;;;;;;;6.43;3.00;;;5.70;99.90;;;;;;5014227;28;20694;-76
2021/01/19 00:48:57;;;;;;;3.43;2.80;;;5.70;99.90;;;;;;5006750;28;20434;-77
2021/01/19 00:51:23;;;;;;;4.40;3.30;;;5.70;99.90;;;;;;5014502;28;20168;-76
2021/01/19 00:53:49;;;;;;;6.40;2.53;;;5.70;99.90;;;;;;5047415;28;20238;-76
2021/01/19 00:56:15;;;;;;;6.20;2.53;;;5.70;99.90;;;;;;5017859;28;20445;-77
2021/01/19 00:58:41;;;;;;;4.00;2.20;;;5.70;99.90;;;;;;5031709;28;20698;-77
2021/01/19 01:01:06;;;;;;;5.77;2.00;;;5.80;99.90;;;;;;5015834;28;20423;-77
2021/01/19 01:03:33;;;;;;;3.10;2.63;;;5.80;99.90;;;;;;5018419;28;20164;-76
2021/01/19 01:05:59;;;;;;;4.17;2.30;;;5.90;99.90;;;;;;5022563;28;20188;-77
2021/01/19 01:08:25;;;;;;;2.33;1.60;;;5.80;99.90;;;;;;5016111;28;20402;-77
2021/01/19 01:10:52;;;;;;;6.20;2.73;;;5.90;99.90;;;;;;5015718;28;20805;-76
2021/01/19 01:13:20;;;;;;;7.23;2.40;;;5.80;99.90;;;;;;5031175;28;20168;-77
2021/01/19 01:15:46;;;;;;;5.57;2.33;;;5.80;99.90;;;;;;4996995;28;20818;-76
2021/01/19 01:18:13;;;;;;;6.60;2.00;;;5.80;99.90;;;;;;5008099;28;20414;-77
2021/01/19 01:20:40;;;;;;;7.70;1.80;;;5.90;99.90;;;;;;5011549;28;20434;-77
2021/01/19 01:23:06;;;;;;;7.43;2.43;;;5.80;99.90;;;;;;4996150;28;20995;-76
2021/01/19 01:25:32;;;;;;;4.93;1.90;;;5.80;99.90;;;;;;5011698;28;20474;-77
2021/01/19 01:27:59;;;;;;;1.77;1.40;;;5.80;99.90;;;;;;5015725;28;20164;-76
2021/01/19 01:30:25;;;;;;;5.13;2.10;;;5.70;99.90;;;;;;5015436;28;20538;-77
2021/01/19 01:32:51;;;;;;;3.20;2.20;;;5.70;99.90;;;;;;5013538;28;20450;-76
2021/01/19 01:35:21;;;;;;;2.80;1.77;;;5.70;99.90;;;;;;5012430;28;20197;-77
2021/01/19 01:37:49;;;;;;;2.87;2.40;;;5.70;99.90;;;;;;4996075;28;20408;-77
2021/01/19 01:40:24;;;;;;;8.20;1.93;;;5.70;99.90;;;;;;5003957;28;20485;-77
2021/01/19 01:42:51;;;;;;;2.10;1.90;;;5.70;99.90;;;;;;5035670;28;20427;-76
2021/01/19 01:45:22;;;;;;;5.30;2.30;;;5.60;99.90;;;;;;5015227;28;20845;-76
2021/01/19 01:47:56;;;;;;;3.07;2.20;;;5.70;99.90;;;;;;5013886;28;20505;-77
2021/01/19 01:50:22;;;;;;;8.30;2.13;;;5.70;99.90;;;;;;5015162;28;20879;-77
2021/01/19 01:52:48;;;;;;;11.33;2.97;;;5.70;99.90;;;;;;5009756;28;20424;-77
2021/01/19 01:55:18;;;;;;;3.00;1.83;;;5.70;99.90;;;;;;5007378;28;20449;-75
2021/01/19 01:57:44;;;;;;;5.43;2.47;;;5.70;99.90;;;;;;5010356;28;20470;-77
2021/01/19 02:00:12;;;;;;;4.70;1.93;;;5.60;99.90;;;;;;5024182;28;21143;-75
2021/01/19 02:02:55;;;;;;;9.30;2.77;;;5.70;99.90;;;;;;5003153;28;20180;-75
2021/01/19 02:05:22;;;;;;;4.13;1.80;;;5.80;99.90;;;;;;5003741;28;21015;-76
2021/01/19 02:08:09;;;;;;;4.50;1.87;;;5.80;99.90;;;;;;5011279;28;20455;-77
2021/01/19 02:10:50;;;;;;;5.20;2.10;;;5.70;99.90;;;;;;5010795;28;20436;-76
2021/01/19 02:13:42;;;;;;;5.07;2.53;;;5.70;99.90;;;;;;5012624;28;20435;-76
2021/01/19 02:16:20;;;;;;;3.10;2.37;;;5.70;99.90;;;;;;5022870;28;20497;-77
2021/01/19 02:18:59;;;;;;;4.77;2.27;;;5.70;99.90;;;;;;5012742;28;20431;-77
2021/01/19 02:21:39;;;;;;;7.27;3.07;;;5.60;99.90;;;;;;5013522;28;20526;-76
2021/01/19 02:24:26;;;;;;;4.90;2.40;;;5.70;99.90;;;;;;4999586;28;21150;-77
2021/01/19 02:32:33;;;;;;;7.20;2.90;;;5.50;99.90;;;;;;5045146;23;20477;-78
2021/01/19 02:35:09;;;;;;;5.83;3.20;;;5.30;99.90;;;;;;5026288;28;20453;-78
2021/01/19 02:37:41;;;;;;;8.70;2.43;;;5.30;99.90;;;;;;5010478;28;20500;-77
2021/01/19 02:40:08;;;;;;;4.57;2.37;;;5.30;99.90;;;;;;5024131;28;20467;-78
2021/01/19 02:42:45;;;;;;;6.10;2.90;;;5.20;99.90;;;;;;5012926;28;20542;-77
2021/01/19 02:45:11;;;;;;;2.80;2.50;;;5.20;99.90;;;;;;5016291;28;20457;-77
2021/01/19 02:47:38;;;;;;;4.20;2.77;;;5.20;99.90;;;;;;5015423;28;20466;-78
2021/01/19 02:50:07;;;;;;;5.23;2.80;;;5.10;99.90;;;;;;5013738;28;20459;-77
2021/01/19 02:52:34;;;;;;;5.53;2.53;;;5.00;99.90;;;;;;5016618;28;20427;-77
2021/01/19 02:55:01;;;;;;;3.20;2.17;;;5.00;99.90;;;;;;5009259;28;20482;-76
2021/01/19 02:57:40;;;;;;;8.30;3.53;;;5.00;99.90;;;;;;5009278;28;20461;-78
2021/01/19 03:00:12;;;;;;;6.30;2.20;;;5.00;99.90;;;;;;5008662;28;20459;-77
2021/01/19 03:02:45;;;;;;;5.70;2.47;;;5.00;99.90;;;;;;5012876;28;20442;-76
2021/01/19 03:05:12;;;;;;;8.10;2.60;;;5.10;99.90;;;;;;5005721;28;20431;-78
2021/01/19 03:07:42;;;;;;;7.73;3.10;;;5.00;99.90;;;;;;5016413;28;20549;-78
2021/01/19 03:10:09;;;;;;;2.93;2.40;;;5.00;99.90;;;;;;5016115;28;20500;-78
2021/01/19 03:12:39;;;;;;;7.27;2.63;;;5.00;99.90;;;;;;5028863;28;20419;-77
2021/01/19 03:15:06;;;;;;;10.33;3.20;;;4.90;99.90;;;;;;5013741;28;20454;-78
2021/01/19 03:17:31;;;;;;;5.13;2.43;;;5.00;99.90;;;;;;5015895;28;20431;-78
2021/01/19 03:19:57;;;;;;;8.10;2.03;;;4.90;99.90;;;;;;5013955;28;20530;-77
2021/01/19 03:22:23;;;;;;;3.47;2.03;;;4.90;99.90;;;;;;5013529;28;20663;-78
2021/01/19 03:24:48;;;;;;;6.03;2.43;;;4.90;99.90;;;;;;5013778;28;20235;-78
2021/01/19 03:27:14;;;;;;;6.20;2.13;;;4.90;99.90;;;;;;5013966;28;20199;-78
2021/01/19 03:29:39;;;;;;;6.63;2.77;;;4.90;99.90;;;;;;5015545;28;20184;-77
2021/01/19 03:32:05;;;;;;;8.27;3.37;;;4.90;99.90;;;;;;5016883;28;20176;-78
2021/01/19 03:34:33;;;;;;;7.83;3.43;;;4.90;99.90;;;;;;5028453;28;20192;-77
2021/01/19 03:36:59;;;;;;;4.90;2.53;;;4.90;99.90;;;;;;5015913;28;20179;-78
2021/01/19 03:39:25;;;;;;;3.80;2.30;;;4.90;99.90;;;;;;5011461;28;20435;-78
2021/01/19 03:41:51;;;;;;;11.30;4.13;;;5.00;99.90;;;;;;5017953;28;20537;-78
2021/01/19 03:44:16;;;;;;;6.83;2.53;;;5.00;99.90;;;;;;5016620;28;20822;-78
2021/01/19 03:46:42;;;;;;;10.13;3.60;;;5.00;99.90;;;;;;5016375;28;20266;-78
2021/01/19 03:49:07;;;;;;;6.80;2.53;;;5.00;99.90;;;;;;5015086;28;20176;-77
2021/01/19 03:51:33;;;;;;;9.20;2.50;;;5.00;99.90;;;;;;5015403;28;20256;-78
2021/01/19 03:53:59;;;;;;;10.30;3.87;;;5.10;99.90;;;;;;5015705;28;20253;-78
2021/01/19 03:56:24;;;;;;;4.33;2.60;;;5.00;99.90;;;;;;5014834;28;20489;-78
2021/01/19 03:58:50;;;;;;;17.37;9.30;;;5.00;99.90;;;;;;5014052;28;20198;-78
2021/01/19 04:01:16;;;;;;;7.70;3.20;;;5.10;99.90;;;;;;5031191;28;20205;-77
2021/01/19 04:03:41;;;;;;;4.00;2.37;;;5.10;99.90;;;;;;5015569;28;20183;-78
2021/01/19 04:06:08;;;;;;;4.63;2.40;;;5.10;99.90;;;;;;5015304;28;20204;-78
2021/01/19 04:08:35;;;;;;;2.20;1.83;;;5.20;99.90;;;;;;5013322;28;20176;-78
2021/01/19 04:11:01;;;;;;;6.80;3.40;;;5.20;99.90;;;;;;5014703;28;20449;-77
2021/01/19 04:13:26;;;;;;;5.00;2.67;;;5.20;99.90;;;;;;5013239;28;20506;-77
2021/01/19 04:15:53;;;;;;;5.50;2.40;;;5.20;99.90;;;;;;5014996;28;20249;-77
2021/01/19 04:18:19;;;;;;;5.53;2.80;;;5.20;99.90;;;;;;5014047;28;20181;-78
2021/01/19 04:20:45;;;;;;;8.10;4.23;;;5.20;99.90;;;;;;5014161;28;20438;-77
2021/01/19 04:23:14;;;;;;;5.53;2.53;;;5.20;99.90;;;;;;5014715;28;20431;-77
2021/01/19 04:25:47;;;;;;;10.43;3.43;;;5.20;99.90;;;;;;5014794;28;20430;-78
2021/01/19 04:28:13;;;;;;;9.23;2.17;;;5.20;99.90;;;;;;5015361;28;20457;-78
2021/01/19 04:30:43;;;;;;;12.80;2.60;;;5.20;99.90;;;;;;5014864;28;20446;-78
2021/01/19 04:33:11;;;;;;;7.40;2.90;;;5.20;99.90;;;;;;5010970;28;20443;-78
2021/01/19 04:35:37;;;;;;;5.70;2.37;;;5.20;99.90;;;;;;5013547;28;20419;-77
2021/01/19 04:38:03;;;;;;;4.37;2.50;;;5.20;99.90;;;;;;5012612;28;20435;-78
2021/01/19 04:40:29;;;;;;;4.17;2.57;;;5.20;99.90;;;;;;5013888;28;20489;-77
2021/01/19 04:42:55;;;;;;;9.70;3.10;;;5.20;99.90;;;;;;5013981;28;20641;-76
2021/01/19 04:45:21;;;;;;;5.50;2.53;;;5.10;99.90;;;;;;5013837;28;20639;-78
2021/01/19 04:47:47;;;;;;;7.40;2.50;;;5.10;99.90;;;;;;5014082;28;20214;-78
2021/01/19 04:50:14;;;;;;;5.57;2.73;;;5.10;99.90;;;;;;5008067;28;20439;-78
2021/01/19 04:52:45;;;;;;;6.83;2.57;;;5.20;99.90;;;;;;5014990;28;20482;-78
2021/01/19 04:55:12;;;;;;;6.80;2.43;;;5.20;99.90;;;;;;5012304;28;20828;-76
2021/01/19 04:57:40;;;;;;;6.73;2.80;;;5.20;99.90;;;;;;5012782;28;20435;-77
2021/01/19 05:00:08;;;;;;;5.30;2.30;;;5.20;99.90;;;;;;5013469;28;20489;-77
2021/01/19 05:02:42;;;;;;;6.70;2.23;;;5.20;99.90;;;;;;5007402;28;20489;-78
2021/01/19 05:05:32;;;;;;;4.00;2.13;;;5.30;99.90;;;;;;5009172;28;20934;-77
2021/01/19 05:08:17;;;;;;;5.30;2.30;;;5.40;99.90;;;;;;5014247;28;20427;-77
2021/01/19 05:10:54;;;;;;;9.37;2.57;;;5.40;99.90;;;;;;5026111;28;20438;-77
2021/01/19 05:13:45;;;;;;;7.47;2.20;;;5.40;99.90;;;;;;5012837;28;20438;-77
2021/01/19 05:16:15;;;;;;;9.93;2.63;;;5.40;99.90;;;;;;5012366;28;20434;-78
2021/01/19 05:18:42;;;;;;;5.63;2.53;;;5.40;99.90;;;;;;5013542;28;20450;-78
2021/01/19 05:21:08;;;;;;;3.17;1.57;;;5.40;99.90;;;;;;5017469;28;20499;-76
2021/01/19 05:23:34;;;;;;;10.20;3.47;;;5.40;99.90;;;;;;5009861;28;20514;-77
2021/01/19 05:26:01;;;;;;;4.10;2.10;;;5.40;99.90;;;;;;5006670;28;21051;-77
2021/01/19 05:28:47;;;;;;;6.10;2.30;;;5.30;99.90;;;;;;5006353;28;20168;-77
2021/01/19 05:31:16;;;;;;;3.03;1.93;;;5.40;99.90;;;;;;5023927;28;20515;-78
2021/01/19 05:33:42;;;;;;;8.20;2.80;;;5.40;99.90;;;;;;5031997;28;20497;-78
2021/01/19 05:36:11;;;;;;;9.43;2.70;;;5.50;99.90;;;;;;5032881;28;20453;-77
2021/01/19 05:38:56;;;;;;;4.10;2.10;;;5.40;99.90;;;;;;5013006;28;20411;-77
2021/01/19 05:41:35;;;;;;;2.57;1.97;;;5.50;99.90;;;;;;5013882;28;20468;-77
2021/01/19 05:44:29;;;;;;;6.43;2.30;;;5.50;99.90;;;;;;5014612;28;20460;-78
2021/01/19 05:46:58;;;;;;;12.90;1.80;;;5.50;99.90;;;;;;5016638;28;20469;-78
2021/01/19 05:49:26;;;;;;;6.53;1.87;;;5.60;99.90;;;;;;5016536;28;20431;-78
2021/01/19 05:52:11;;;;;;;3.30;1.70;;;5.60;99.90;;;;;;5016930;28;20540;-78
2021/01/19 05:54:40;;;;;;;4.63;1.70;;;5.70;99.90;;;;;;5016077;28;20502;-77
2021/01/19 05:57:11;;;;;;;5.80;1.43;;;5.70;99.90;;;;;;5015992;28;20423;-77
2021/01/19 05:59:45;;;;;;;3.10;2.17;;;5.70;99.90;;;;;;5015882;28;20431;-78
2021/01/19 06:02:19;;;;;;;3.57;1.80;;;5.80;99.90;;;;;;5024616;28;20434;-77
2021/01/19 06:04:50;;;;;;;2.47;1.40;;;5.80;99.90;;;;;;5012820;28;20432;-77
2021/01/19 06:07:24;;;;;;;2.37;1.43;;;5.80;99.90;;;;;;5009557;28;20461;-78
2021/01/19 06:09:50;;;;;;;4.90;1.37;;;5.80;99.90;;;;;;5013833;28;20452;-77
2021/01/19 06:12:18;;;;;;;4.30;1.70;;;5.80;99.90;;;;;;5013745;28;20793;-77
2021/01/19 06:14:51;;;;;;;3.50;1.50;;;5.80;99.90;;;;;;5014570;28;20430;-77
2021/01/19 06:17:22;;;;;;;5.53;2.00;;;5.80;99.90;;;;;;5014246;28;20523;-77
2021/01/19 06:19:49;;;;;;;1.50;1.10;;;5.90;99.90;;;;;;5016938;28;20931;-77
2021/01/19 06:22:23;;;;;;;2.00;1.23;;;5.90;99.90;;;;;;5023381;28;20565;-77
2021/01/19 06:25:01;;;;;;;2.13;1.23;;;5.90;99.90;;;;;;5019987;28;20792;-78
2021/01/19 06:27:26;;;;;;;1.90;1.23;;;5.80;99.90;;;;;;5016897;28;20549;-78
2021/01/19 06:29:58;;;;;;;1.87;1.23;;;5.80;99.90;;;;;;5005879;28;20506;-77
2021/01/19 06:32:25;;;;;;;3.73;1.20;;;5.80;99.90;;;;;;5007370;28;20168;-77
2021/01/19 06:34:51;;;;;;;1.50;0.90;;;5.70;99.90;;;;;;5014433;28;20469;-77
2021/01/19 06:37:28;;;;;;;2.27;1.00;;;5.80;99.90;;;;;;5013792;28;21004;-77
2021/01/19 06:39:58;;;;;;;2.07;1.20;;;5.80;99.90;;;;;;5017495;28;20427;-77
2021/01/19 06:42:30;;;;;;;2.60;0.93;;;5.80;99.90;;;;;;5026455;28;20573;-77
2021/01/19 06:45:02;;;;;;;1.93;1.10;;;5.80;99.90;;;;;;5021009;28;20446;-78
2021/01/19 06:47:28;;;;;;;3.50;1.50;;;5.80;99.90;;;;;;5012404;28;20451;-77
2021/01/19 06:49:54;;;;;;;1.20;0.90;;;5.90;99.90;;;;;;5015602;28;20430;-77
2021/01/19 06:52:21;;;;;;;2.50;1.00;;;5.90;99.90;;;;;;5026371;28;20182;-77
2021/01/19 06:54:52;;;;;;;1.30;1.00;;;6.00;99.90;;;;;;5028394;28;20423;-78
2021/01/19 06:57:30;;;;;;;1.30;1.07;;;6.00;99.90;;;;;;5012886;28;20466;-78
2021/01/19 07:00:11;;;;;;;1.10;0.90;;;6.00;99.90;;;;;;5016315;28;20434;-78
2021/01/19 07:02:38;;;;;;;1.40;1.20;;;6.00;99.90;;;;;;5007290;28;20430;-77
2021/01/19 07:05:09;;;;;;;1.87;1.07;;;6.00;99.90;;;;;;5013276;28;20435;-76
2021/01/19 07:07:42;;;;;;;1.23;0.90;;;6.00;99.90;;;;;;5013187;28;20462;-77
2021/01/19 07:10:18;;;;;;;1.10;1.00;;;5.90;99.90;;;;;;5014291;28;20569;-75
2021/01/19 07:12:47;;;;;;;2.20;0.90;;;6.00;99.90;;;;;;5015406;28;20461;-77
2021/01/19 07:15:19;;;;;;;1.73;1.33;;;6.00;99.90;;;;;;5017723;28;20496;-77
2021/01/19 07:18:22;;;;;;;2.17;1.07;;;6.00;99.90;;;;;;5012096;28;20426;-77
2021/01/19 07:21:08;;;;;;;4.00;1.37;;;6.00;99.90;;;;;;5018368;28;20438;-76
2021/01/19 07:23:39;;;;;;;1.40;1.10;;;5.90;99.90;;;;;;5006660;28;20430;-77
2021/01/19 07:26:05;;;;;;;1.13;0.90;;;5.80;99.90;;;;;;5027905;28;20458;-77
2021/01/19 07:28:32;;;;;;;1.20;1.00;;;5.90;99.90;;;;;;5011560;28;20439;-77
2021/01/19 07:30:59;;;;;;;1.73;1.00;;;5.90;99.90;;;;;;5011709;28;20195;-77
2021/01/19 07:33:26;;;;;;;1.37;0.90;;;5.80;99.90;;;;;;5011462;28;20521;-77
2021/01/19 07:35:52;;;;;;;3.77;1.30;;;5.80;99.90;;;;;;5011220;28;20450;-77
2021/01/19 07:38:23;;;;;;;1.87;1.20;;;5.70;99.90;;;;;;5019590;28;20418;-78
2021/01/19 07:40:49;;;;;;;1.50;1.03;;;5.80;99.90;;;;;;5020280;28;20808;-77
2021/01/19 07:43:21;;;;;;;1.50;1.07;;;5.80;99.90;;;;;;5015961;28;20530;-77
2021/01/19 07:46:05;;;;;;;3.90;1.67;;;5.80;99.90;;;;;;5016659;28;20171;-79
2021/01/19 07:48:36;;;;;;;2.80;1.73;;;5.70;99.90;;;;;;5013885;28;20423;-78
2021/01/19 07:51:12;;;;;;;2.30;1.37;;;5.60;99.90;;;;;;5023739;28;20561;-78
2021/01/19 07:53:54;;;;;;;1.47;1.00;;;5.60;99.90;;;;;;5006730;28;20426;-78
2021/01/19 07:56:23;;;;;;;1.63;1.50;;;5.60;99.90;;;;;;5010910;28;20553;-78
2021/01/19 07:58:49;;;;;;;2.20;1.00;;;5.50;99.90;;;;;;5027424;28;20438;-78
2021/01/19 08:01:34;;;;;;;2.10;0.90;;;5.50;99.90;;;;;;5017563;28;20446;-77
2021/01/19 08:04:09;;;;;;;1.80;1.40;;;5.50;99.90;;;;;;5012655;28;20441;-77
2021/01/19 08:06:35;;;;;;;1.37;1.20;;;5.50;99.90;;;;;;5030096;28;20511;-78
2021/01/19 08:09:20;;;;;;;5.60;1.47;;;5.40;99.90;;;;;;5014030;28;20494;-77
2021/01/19 08:11:47;;;;;;;1.83;1.40;;;5.40;99.90;;;;;;5022437;28;20780;-77
2021/01/19 08:14:13;;;;;;;6.10;1.47;;;5.40;99.90;;;;;;5006855;28;20931;-77
2021/01/19 08:16:42;;;;;;;4.23;1.23;;;5.40;99.90;;;;;;5011957;28;20787;-78
2021/01/19 08:19:13;;;;;;;2.73;1.50;;;5.40;99.90;;;;;;5012486;28;20458;-77
2021/01/19 08:21:53;;;;;;;3.30;0.97;;;5.40;99.90;;;;;;5011052;28;20435;-76
2021/01/19 08:24:20;;;;;;;2.13;1.50;;;5.40;99.90;;;;;;5013572;28;20423;-77
2021/01/19 08:26:46;;;;;;;3.43;1.50;;;5.30;99.90;;;;;;5009893;28;20455;-78
2021/01/19 08:29:12;;;;;;;2.30;1.40;;;5.30;99.90;;;;;;5028050;28;20439;-79
2021/01/19 08:31:38;;;;;;;2.70;1.33;;;5.30;99.90;;;;;;5015844;28;20451;-77
2021/01/19 08:34:06;;;;;;;2.30;1.27;;;5.30;99.90;;;;;;5012038;28;20183;-77
2021/01/19 08:36:33;;;;;;;3.20;1.10;;;5.30;99.90;;;;;;5024276;28;20180;-77
2021/01/19 08:39:01;;;;;;;2.30;1.30;;;5.30;99.90;;;;;;5012559;28;20430;-78
2021/01/19 08:41:27;;;;;;;2.47;1.07;;;5.30;99.90;;;;;;4997939;28;20446;-78
2021/01/19 08:44:04;;;;;;;3.37;1.33;;;5.30;99.90;;;;;;5012423;28;20418;-77
2021/01/19 08:46:31;;;;;;;5.23;1.10;;;5.30;99.90;;;;;;5009727;28;20524;-78
2021/01/19 08:49:01;;;;;;;0.97;0.83;;;5.40;99.90;;;;;;4997585;28;20439;-77
2021/01/19 08:51:27;;;;;;;3.00;1.07;;;5.30;99.90;;;;;;4996051;28;20442;-79
2021/01/19 08:53:53;;;;;;;2.53;0.93;;;5.40;99.90;;;;;;5009751;28;20431;-78
2021/01/19 08:56:21;;;;;;;3.00;1.80;;;5.40;99.90;;;;;;5011144;28;20431;-78
2021/01/19 08:58:47;;;;;;;1.90;1.20;;;5.40;99.90;;;;;;5010789;28;20935;-78
2021/01/19 09:01:13;;;;;;;0.70;0.70;;;5.40;99.90;;;;;;5009940;28;20485;-78
2021/01/19 09:03:39;;;;;;;1.00;0.90;;;5.50;99.90;;;;;;5017047;28;21026;-77
2021/01/19 09:06:07;;;;;;;1.37;1.00;;;5.50;99.90;;;;;;5012153;28;20542;-78
2021/01/19 09:08:33;;;;;;;2.53;1.20;;;5.50;99.90;;;;;;5019665;28;20160;-78
2021/01/19 09:11:02;;;;;;;1.60;0.90;;;5.50;99.90;;;;;;5022842;28;20541;-77
2021/01/19 09:13:30;;;;;;;2.20;1.00;;;5.50;99.90;;;;;;5023647;28;20764;-77
2021/01/19 09:15:56;;;;;;;1.00;0.80;;;5.50;99.90;;;;;;5010303;28;20489;-78
2021/01/19 09:18:23;;;;;;;1.10;1.00;;;5.50;99.90;;;;;;5012886;28;20439;-77
2021/01/19 09:21:09;;;;;;;1.57;0.80;;;5.50;99.90;;;;;;5014766;28;20234;-78
2021/01/19 09:23:36;;;;;;;1.43;1.10;;;5.50;99.90;;;;;;5014671;28;20435;-78
2021/01/19 09:26:08;;;;;;;0.90;0.73;;;5.60;99.90;;;;;;5009719;28;20609;-77
2021/01/19 09:28:35;;;;;;;2.20;0.90;;;5.60;99.90;;;;;;5014278;28;20435;-77
2021/01/19 09:31:20;;;;;;;1.20;1.10;;;5.50;99.90;;;;;;5023798;28;20476;-78
2021/01/19 09:33:48;;;;;;;1.10;0.90;;;5.50;99.90;;;;;;5016018;28;20434;-78
2021/01/19 09:36:14;;;;;;;1.07;0.97;;;5.50;99.90;;;;;;5015284;28;20938;-78
2021/01/19 09:38:41;;;;;;;0.97;0.87;;;5.50;99.90;;;;;;5014714;28;20435;-78
2021/01/19 09:41:08;;;;;;;0.90;0.80;;;5.50;99.90;;;;;;5022538;28;20487;-78
2021/01/19 09:43:35;;;;;;;1.17;0.87;;;5.60;99.90;;;;;;5028684;28;20575;-79
2021/01/19 09:46:06;;;;;;;1.20;0.77;;;5.50;99.90;;;;;;5025747;28;20807;-78
2021/01/19 09:48:35;;;;;;;0.87;0.60;;;5.60;99.90;;;;;;5014816;28;20478;-78
2021/01/19 09:51:05;;;;;;;1.00;0.83;;;5.60;99.90;;;;;;5014920;28;20804;-78
2021/01/19 09:53:33;;;;;;;0.90;0.80;;;5.60;99.90;;;;;;5009620;28;20478;-78
2021/01/19 09:56:13;;;;;;;1.17;0.80;;;5.70;99.90;;;;;;5022063;28;20936;-78
2021/01/19 09:58:39;;;;;;;1.73;1.10;;;5.80;99.90;;;;;;5017690;28;20783;-78
2021/01/19 10:01:05;;;;;;;2.30;0.87;;;5.80;99.90;;;;;;5009261;28;20446;-78
2021/01/19 10:03:33;;;;;;;1.90;0.93;;;5.80;99.90;;;;;;5013341;28;20314;-79
2021/01/19 10:06:05;;;;;;;2.40;1.10;;;5.90;99.90;;;;;;5014894;28;20403;-78
2021/01/19 10:08:31;;;;;;;1.10;0.70;;;5.90;99.90;;;;;;5014336;28;20518;-78
2021/01/19 10:10:57;;;;;;;1.57;1.07;;;5.90;99.90;;;;;;5013439;28;20836;-78
2021/01/19 10:13:30;;;;;;;1.20;1.03;;;6.00;99.90;;;;;;5017249;28;20391;-80
2021/01/19 10:16:03;;;;;;;2.30;0.93;;;6.00;99.90;;;;;;5014943;28;20188;-78
2021/01/19 10:18:31;;;;;;;1.23;0.90;;;6.20;99.90;;;;;;5014842;28;20404;-78
2021/01/19 10:20:57;;;;;;;5.13;0.87;;;6.40;99.90;;;;;;5012989;28;20446;-78
2021/01/19 10:23:31;;;;;;;1.07;0.80;;;6.50;99.90;;;;;;5013589;28;20404;-78
2021/01/19 10:26:10;;;;;;;1.27;0.70;;;6.70;99.90;;;;;;5013691;28;20423;-78
2021/01/19 10:28:44;;;;;;;0.80;0.63;;;6.70;99.90;;;;;;5011098;28;20449;-78
2021/01/19 10:31:18;;;;;;;1.00;0.70;;;6.80;99.90;;;;;;5013302;28;20454;-79
2021/01/19 10:33:55;;;;;;;1.00;0.60;;;6.90;99.90;;;;;;5013517;28;20442;-78
2021/01/19 10:36:21;;;;;;;1.37;0.70;;;7.00;99.90;;;;;;5014381;28;20415;-78
2021/01/19 10:38:47;;;;;;;0.97;0.60;;;7.10;99.90;;;;;;5013717;28;20450;-78
2021/01/19 10:41:23;;;;;;;1.60;0.70;;;7.10;99.90;;;;;;5009179;28;20459;-78
2021/01/19 10:43:51;;;;;;;0.90;0.70;;;7.10;99.90;;;;;;5013132;28;20172;-78
2021/01/19 10:46:21;;;;;;;1.10;0.70;;;7.20;99.90;;;;;;5013544;28;20806;-77
2021/01/19 10:48:57;;;;;;;0.80;0.60;;;7.20;99.90;;;;;;5013472;28;20434;-77
2021/01/19 10:51:23;;;;;;;0.97;0.80;;;7.30;99.90;;;;;;4994212;28;20435;-78
2021/01/19 10:53:49;;;;;;;1.00;0.80;;;7.30;99.90;;;;;;4997918;28;20847;-78
2021/01/19 10:56:15;;;;;;;0.80;0.70;;;7.40;99.90;;;;;;5012402;28;20176;-78
2021/01/19 10:58:41;;;;;;;0.90;0.77;;;7.40;99.90;;;;;;5013611;28;20191;-78
2021/01/19 11:01:06;;;;;;;1.80;0.60;;;7.40;99.90;;;;;;5012004;28;20459;-78
2021/01/19 11:03:32;;;;;;;2.17;0.93;;;7.50;99.90;;;;;;5013292;28;20180;-80
2021/01/19 11:05:57;;;;;;;1.20;1.10;;;7.50;99.90;;;;;;5013703;28;20255;-78
2021/01/19 11:08:23;;;;;;;1.70;0.80;;;7.50;99.90;;;;;;5013473;28;20637;-78
2021/01/19 11:10:48;;;;;;;0.97;0.67;;;7.50;99.90;;;;;;5011619;28;20200;-78
2021/01/19 11:13:14;;;;;;;1.67;0.90;;;7.60;99.90;;;;;;5016150;28;20287;-77
2021/01/19 11:15:40;;;;;;;0.90;0.70;;;7.60;99.90;;;;;;5017462;28;20221;-77
2021/01/19 11:18:05;;;;;;;0.80;0.70;;;7.60;99.90;;;;;;5018956;28;20191;-78
2021/01/19 11:20:31;;;;;;;0.90;0.70;;;7.70;99.90;;;;;;5015325;28;20192;-77
2021/01/19 11:22:56;;;;;;;1.13;0.80;;;7.70;99.90;;;;;;5013682;28;20187;-78
2021/01/19 11:25:22;;;;;;;0.80;0.60;;;7.70;99.90;;;;;;5012822;28;20184;-78
2021/01/19 11:27:49;;;;;;;0.90;0.80;;;7.70;99.90;;;;;;5016687;28;20295;-78
2021/01/19 11:30:15;;;;;;;1.33;1.20;;;7.70;99.90;;;;;;5017277;28;20192;-78
2021/01/19 11:32:41;;;;;;;1.10;0.93;;;7.70;99.90;;;;;;5016207;28;20427;-78
2021/01/19 11:35:07;;;;;;;2.33;0.80;;;7.70;99.90;;;;;;5011596;28;20427;-78
2021/01/19 11:37:32;;;;;;;1.53;0.70;;;7.70;99.90;;;;;;5030542;28;20176;-78
2021/01/19 11:39:58;;;;;;;2.60;1.17;;;7.70;99.90;;;;;;5018483;28;20443;-78
2021/01/19 11:42:24;;;;;;;1.00;0.70;;;7.70;99.90;;;;;;5016379;28;20215;-77
2021/01/19 11:44:49;;;;;;;5.00;1.00;;;7.80;99.90;;;;;;5033197;28;20256;-78
2021/01/19 11:47:15;;;;;;;1.23;1.00;;;7.70;99.90;;;;;;5018789;28;20620;-77
2021/01/19 11:49:41;;;;;;;0.97;0.80;;;7.70;99.90;;;;;;5015345;28;20164;-78
2021/01/19 11:52:06;;;;;;;1.20;0.83;;;7.70;99.90;;;;;;5012056;28;20176;-77
2021/01/19 11:54:32;;;;;;;2.43;1.03;;;7.80;99.90;;;;;;5013421;28;20247;-78
2021/01/19 11:56:58;;;;;;;1.60;0.80;;;7.80;99.90;;;;;;5012707;28;20581;-77
2021/01/19 11:59:25;;;;;;;4.30;0.80;;;7.80;99.90;;;;;;5012239;28;20172;-77
2021/01/19 12:01:55;;;;;;;1.20;0.93;;;7.80;99.90;;;;;;5011488;28;20199;-78
2021/01/19 12:04:22;;;;;;;2.50;1.13;;;7.80;99.90;;;;;;5012257;28;20514;-78
2021/01/19 12:06:48;;;;;;;1.00;0.77;;;7.80;99.90;;;;;;5011954;28;20528;-77
2021/01/19 12:09:14;;;;;;;2.47;1.00;;;7.80;99.90;;;;;;5010375;28;20791;-78
2021/01/19 12:11:48;;;;;;;6.80;1.17;;;7.80;99.90;;;;;;5011743;28;20451;-78
2021/01/19 12:14:13;;;;;;;1.20;1.10;;;7.90;99.90;;;;;;5012587;28;20399;-78
2021/01/19 12:16:39;;;;;;;28.47;17.77;;;7.90;99.90;;;;;;5012452;28;20456;-77
2021/01/19 12:19:12;;;;;;;0.97;0.70;;;7.90;99.90;;;;;;5011896;28;20179;-78
2021/01/19 12:21:48;;;;;;;1.13;0.80;;;7.90;99.90;;;;;;5011041;28;20596;-78
2021/01/19 12:24:14;;;;;;;1.30;0.70;;;8.00;99.90;;;;;;5011477;28;20504;-78
2021/01/19 12:26:40;;;;;;;1.63;0.80;;;7.90;99.90;;;;;;5011744;28;20459;-79
2021/01/19 12:29:05;;;;;;;1.30;0.80;;;8.00;99.90;;;;;;5011780;28;20446;-78
2021/01/19 12:31:32;;;;;;;1.60;1.10;;;7.90;99.90;;;;;;5011479;28;20204;-78
2021/01/19 12:33:58;;;;;;;1.20;0.90;;;8.00;99.90;;;;;;5011653;28;20271;-78
2021/01/19 12:36:24;;;;;;;1.10;0.80;;;8.00;99.90;;;;;;5012373;28;20439;-77
2021/01/19 12:38:49;;;;;;;1.20;0.80;;;8.00;99.90;;;;;;5012280;28;20458;-77
2021/01/19 12:41:15;;;;;;;1.67;0.80;;;8.00;99.90;;;;;;5009022;28;20557;-77
2021/01/19 12:43:42;;;;;;;2.03;0.73;;;8.00;99.90;;;;;;4995461;28;20274;-78
2021/01/19 12:46:10;;;;;;;1.43;1.00;;;8.00;99.90;;;;;;5013195;28;20890;-78
2021/01/19 12:48:36;;;;;;;1.00;0.80;;;8.00;99.90;;;;;;5011577;28;20471;-77
2021/01/19 12:51:04;;;;;;;1.53;0.90;;;8.10;99.90;;;;;;5010252;28;20843;-77
2021/01/19 12:53:30;;;;;;;1.87;0.87;;;8.10;99.90;;;;;;5015866;28;20254;-78
2021/01/19 12:55:55;;;;;;;1.73;1.20;;;8.10;99.90;;;;;;5015449;28;20514;-78
2021/01/19 12:58:21;;;;;;;1.20;1.10;;;8.00;99.90;;;;;;5017644;28;20171;-78
2021/01/19 13:00:46;;;;;;;0.93;0.80;;;8.10;99.90;;;;;;5029981;28;20207;-78
2021/01/19 13:03:12;;;;;;;2.00;0.80;;;8.10;99.90;;;;;;5015458;28;20195;-77
2021/01/19 13:05:37;;;;;;;1.50;0.87;;;8.10;99.90;;;;;;5014170;28;20229;-77
2021/01/19 13:08:03;;;;;;;1.30;1.00;;;8.20;99.90;;;;;;5017707;28;20528;-78
2021/01/19 13:10:29;;;;;;;2.97;1.03;;;8.20;99.90;;;;;;5013666;28;20265;-78
2021/01/19 13:12:55;;;;;;;1.50;1.07;;;8.20;99.90;;;;;;5015869;28;20768;-77